Time;durP1;ratioP1;P1;durP2;ratioP2;P2;SDS_P1;SDS_P2;PMS_P1;PMS_P2;Temp;Humidity;BMP_temperature;BMP_pressure;BME280_temperature;BME280_humidity;BME280_pressure;Samples;Min_cycle;Max_cycle;Signal;HPM_P1;HPM_P2
2022/03/31 00:00:57;;;;;;;;;;;;;;;2.97;100.00;100444.66;5139076;27;20335;-69
2022/03/31 00:03:22;;;;;;;;;;;;;;;2.90;100.00;100450.88;5120500;27;19923;-68
2022/03/31 00:05:48;;;;;;;;;;;;;;;2.89;100.00;100449.16;5120183;27;19919;-68
2022/03/31 00:08:14;;;;;;;;;;;;;;;2.81;100.00;100451.06;5120511;27;19915;-68
2022/03/31 00:10:44;;;;;;;;;;;;;;;2.82;100.00;100451.94;5120123;27;19949;-69
2022/03/31 00:13:14;;;;;;;;;;;;;;;2.80;100.00;100449.34;5120013;27;19922;-69
2022/03/31 00:15:40;;;;;;;;;;;;;;;2.71;100.00;100457.34;5119694;27;19951;-68
2022/03/31 00:18:06;;;;;;;;;;;;;;;2.53;100.00;100448.91;5118303;27;19937;-68
2022/03/31 00:23:37;;;;;;;;;;;;;;;2.57;100.00;100456.69;5137477;27;19964;-69
2022/03/31 00:26:02;;;;;;;;;;;;;;;2.56;100.00;100460.22;5118336;27;19930;-69
2022/03/31 00:28:28;;;;;;;;;;;;;;;2.48;100.00;100456.88;5119184;27;19920;-69
2022/03/31 00:30:53;;;;;;;;;;;;;;;2.39;100.00;100462.25;5116612;27;20290;-69
2022/03/31 00:33:18;;;;;;;;;;;;;;;2.38;100.00;100459.66;5119134;27;19922;-69
2022/03/31 00:35:43;;;;;;;;;;;;;;;2.13;100.00;100453.91;5119432;27;20289;-69
2022/03/31 00:38:10;;;;;;;;;;;;;;;1.95;100.00;100462.06;5119041;27;19920;-69
2022/03/31 00:40:36;;;;;;;;;;;;;;;1.97;100.00;100460.25;5118933;27;19915;-69
2022/03/31 00:43:02;;;;;;;;;;;;;;;1.96;100.00;100455.03;5118961;27;20006;-67
2022/03/31 00:45:34;;;;;;;;;;;;;;;1.88;100.00;100455.16;5118949;27;19926;-70
2022/03/31 00:47:59;;;;;;;;;;;;;;;1.80;100.00;100454.38;5118708;27;19921;-69
2022/03/31 00:50:26;;;;;;;;;;;;;;;1.93;100.00;100452.47;5118539;27;20348;-69
2022/03/31 00:52:52;;;;;;;;;;;;;;;1.87;100.00;100448.19;5118175;27;19915;-69
2022/03/31 00:55:19;;;;;;;;;;;;;;;1.93;100.00;100445.50;5118871;27;20022;-69
2022/03/31 00:57:45;;;;;;;;;;;;;;;1.82;100.00;100443.91;5118657;27;20404;-69
2022/03/31 01:00:11;;;;;;;;;;;;;;;1.77;100.00;100438.72;5118870;27;19923;-69
2022/03/31 01:02:38;;;;;;;;;;;;;;;1.89;100.00;100438.53;5118651;27;20381;-69
2022/03/31 01:05:04;;;;;;;;;;;;;;;1.89;100.00;100442.94;5118974;27;19915;-70
2022/03/31 01:07:29;;;;;;;;;;;;;;;1.88;100.00;100449.03;5137461;27;20054;-69
2022/03/31 01:09:56;;;;;;;;;;;;;;;1.86;100.00;100446.44;5118637;27;20398;-70
2022/03/31 01:12:22;;;;;;;;;;;;;;;1.93;100.00;100435.00;5118824;27;20366;-69
2022/03/31 01:14:47;;;;;;;;;;;;;;;1.92;100.00;100442.91;5118827;27;19919;-70
2022/03/31 01:17:12;;;;;;;;;;;;;;;1.87;100.00;100440.34;5118931;27;19916;-69
2022/03/31 01:19:37;;;;;;;;;;;;;;;1.84;100.00;100444.75;5118337;27;19926;-69
2022/03/31 01:22:04;;;;;;;;;;;;;;;1.80;100.00;100433.44;5118616;27;20379;-69
2022/03/31 01:24:29;;;;;;;;;;;;;;;1.73;100.00;100437.06;5119029;27;19922;-70
2022/03/31 01:26:54;;;;;;;;;;;;;;;1.76;100.00;100429.16;5118675;27;19994;-70
2022/03/31 01:29:21;;;;;;;;;;;;;;;1.80;100.00;100430.81;5119049;27;19922;-70
2022/03/31 01:31:46;;;;;;;;;;;;;;;1.82;100.00;100422.94;5119101;27;19915;-70
2022/03/31 01:34:12;;;;;;;;;;;;;;;1.78;100.00;100419.50;5136975;27;19916;-69
2022/03/31 01:36:37;;;;;;;;;;;;;;;1.84;100.00;100408.09;5136503;27;19927;-70
2022/03/31 01:39:03;;;;;;;;;;;;;;;1.90;100.00;100405.38;5118084;27;20354;-69
2022/03/31 01:41:28;;;;;;;;;;;;;;;1.82;100.00;100402.00;5117798;27;19923;-70
2022/03/31 01:43:54;;;;;;;;;;;;;;;1.89;100.00;100399.28;5117934;27;19916;-70
2022/03/31 01:46:35;;;;;;;;;;;;;;;1.81;100.00;100388.06;5136684;27;20262;-70
2022/03/31 01:49:01;;;;;;;;;;;;;;;1.81;100.00;100397.66;5118119;27;19938;-69
2022/03/31 01:54:30;;;;;;;;;;;;;;;1.67;100.00;100390.00;5136530;27;19926;-70
2022/03/31 01:56:55;;;;;;;;;;;;;;;1.77;100.00;100383.75;5101101;27;19962;-69
2022/03/31 01:59:20;;;;;;;;;;;;;;;1.69;100.00;100380.38;5117678;27;19977;-69
2022/03/31 02:01:48;;;;;;;;;;;;;;;1.70;100.00;100386.50;5117369;27;19911;-70
2022/03/31 02:04:13;;;;;;;;;;;;;;;1.63;100.00;100398.78;5118041;27;19915;-69
2022/03/31 02:06:38;;;;;;;;;;;;;;;1.76;100.00;100395.13;5100539;27;19923;-69
2022/03/31 02:09:03;;;;;;;;;;;;;;;1.69;100.00;100396.09;5117838;27;19923;-69
2022/03/31 02:11:29;;;;;;;;;;;;;;;1.73;100.00;100395.16;5117992;27;19982;-69
2022/03/31 02:13:54;;;;;;;;;;;;;;;1.73;100.00;100395.16;5117594;27;20018;-69
2022/03/31 02:16:19;;;;;;;;;;;;;;;1.70;100.00;100389.09;5117665;27;19921;-68
2022/03/31 02:18:45;;;;;;;;;;;;;;;1.62;100.00;100394.44;5118259;27;19922;-69
2022/03/31 02:21:11;;;;;;;;;;;;;;;1.55;100.00;100393.66;5117587;27;19959;-69
2022/03/31 02:23:37;;;;;;;;;;;;;;;1.65;100.00;100401.38;5117525;27;19938;-70
2022/03/31 02:26:02;;;;;;;;;;;;;;;1.70;100.00;100394.34;5117611;27;19915;-70
2022/03/31 02:28:27;;;;;;;;;;;;;;;1.74;100.00;100390.78;5117266;27;19923;-69
2022/03/31 02:30:52;;;;;;;;;;;;;;;1.63;100.00;100393.56;5135878;27;19943;-70
2022/03/31 02:33:18;;;;;;;;;;;;;;;1.70;100.00;100395.22;5100228;27;19919;-69
2022/03/31 02:35:43;;;;;;;;;;;;;;;1.72;100.00;100401.28;5116991;27;19915;-70
2022/03/31 02:38:08;;;;;;;;;;;;;;;1.64;100.00;100395.28;5116984;27;19916;-70
2022/03/31 02:40:33;;;;;;;;;;;;;;;1.81;100.00;100397.66;5117339;27;19916;-70
2022/03/31 02:42:59;;;;;;;;;;;;;;;1.88;100.00;100394.06;5116988;27;19915;-70
2022/03/31 02:45:24;;;;;;;;;;;;;;;1.74;100.00;100396.88;5117053;27;19964;-70
2022/03/31 02:47:49;;;;;;;;;;;;;;;1.76;100.00;100389.88;5116826;27;19915;-69
2022/03/31 02:56:30;;;;;;;;;;;;;;;1.81;100.00;100372.38;5114783;28;20285;-70
2022/03/31 02:58:55;;;;;;;;;;;;;;;1.78;100.00;100376.78;5096522;28;20033;-69
2022/03/31 03:01:21;;;;;;;;;;;;;;;1.78;100.00;100372.38;5096488;28;20392;-69
2022/03/31 03:03:47;;;;;;;;;;;;;;;1.82;100.00;100374.09;5096371;28;19916;-70
2022/03/31 03:06:13;;;;;;;;;;;;;;;1.92;100.00;100386.16;5096285;28;20294;-69
2022/03/31 03:08:38;;;;;;;;;;;;;;;1.97;100.00;100376.44;5096949;28;19963;-70
2022/03/31 03:11:03;;;;;;;;;;;;;;;2.00;100.00;100362.47;5096300;28;20330;-70
2022/03/31 03:13:28;;;;;;;;;;;;;;;2.01;100.00;100370.31;5114414;28;19919;-70
2022/03/31 03:15:54;;;;;;;;;;;;;;;2.07;100.00;100367.56;5100859;28;19916;-69
2022/03/31 03:18:20;;;;;;;;;;;;;;;2.07;100.00;100375.44;5100482;28;19922;-70
2022/03/31 03:20:45;;;;;;;;;;;;;;;2.05;100.00;100371.97;5100552;28;19958;-70
2022/03/31 03:23:10;;;;;;;;;;;;;;;2.10;100.00;100375.38;5100859;28;19923;-68
2022/03/31 03:25:35;;;;;;;;;;;;;;;2.06;100.00;100378.97;5100483;28;19941;-69
2022/03/31 03:28:01;;;;;;;;;;;;;;;2.12;100.00;100373.63;5100943;28;19968;-68
2022/03/31 03:30:26;;;;;;;;;;;;;;;2.16;100.00;100377.06;5121580;28;19917;-69
2022/03/31 03:32:52;;;;;;;;;;;;;;;2.13;100.00;100375.34;5109518;28;19916;-68
2022/03/31 03:35:17;;;;;;;;;;;;;;;2.14;100.00;100377.09;5125246;28;19986;-68
2022/03/31 03:37:43;;;;;;;;;;;;;;;2.12;100.00;100383.22;5104773;28;19915;-68
2022/03/31 03:40:09;;;;;;;;;;;;;;;2.10;100.00;100380.63;5104912;28;19950;-68
2022/03/31 03:42:35;;;;;;;;;;;;;;;2.11;100.00;100387.56;5104156;28;20343;-68
2022/03/31 03:45:01;;;;;;;;;;;;;;;2.24;100.00;100390.91;5100833;28;19916;-68
2022/03/31 03:47:27;;;;;;;;;;;;;;;2.27;100.00;100390.84;5100507;28;19916;-68
2022/03/31 03:49:52;;;;;;;;;;;;;;;2.40;100.00;100390.59;5100115;28;19972;-68
2022/03/31 03:52:18;;;;;;;;;;;;;;;2.42;100.00;100387.97;5100449;28;20290;-68
2022/03/31 03:54:43;;;;;;;;;;;;;;;2.36;100.00;100391.56;5118215;28;19923;-67
2022/03/31 03:57:08;;;;;;;;;;;;;;;2.40;100.00;100395.84;5117772;28;19923;-68
2022/03/31 03:59:34;;;;;;;;;;;;;;;2.38;100.00;100392.38;5117752;28;19923;-68
2022/03/31 04:01:59;;;;;;;;;;;;;;;2.31;100.00;100392.50;5116956;28;20392;-67
2022/03/31 04:04:25;;;;;;;;;;;;;;;2.23;100.00;100391.75;5100163;28;20332;-68
2022/03/31 04:06:51;;;;;;;;;;;;;;;2.38;100.00;100387.13;5099691;28;20023;-68
2022/03/31 04:09:16;;;;;;;;;;;;;;;2.26;100.00;100397.81;5116932;28;19916;-68
2022/03/31 04:11:41;;;;;;;;;;;;;;;2.36;100.00;100401.16;5117904;28;19922;-68
2022/03/31 04:14:06;;;;;;;;;;;;;;;2.31;100.00;100401.25;5117948;28;20010;-68
2022/03/31 04:16:31;;;;;;;;;;;;;;;2.26;100.00;100396.94;5117727;28;19916;-68
2022/03/31 04:18:57;;;;;;;;;;;;;;;2.15;100.00;100398.88;5099089;28;20385;-68
2022/03/31 04:21:22;;;;;;;;;;;;;;;2.20;100.00;100397.94;5099260;28;19916;-68
2022/03/31 04:23:47;;;;;;;;;;;;;;;2.35;100.00;100396.81;5099084;28;20053;-68
2022/03/31 04:26:12;;;;;;;;;;;;;;;2.26;100.00;100400.44;5117086;28;19916;-68
2022/03/31 04:28:37;;;;;;;;;;;;;;;2.36;100.00;100403.78;5116328;28;20001;-68
2022/03/31 04:31:03;;;;;;;;;;;;;;;2.39;100.00;100403.72;5099007;28;19944;-68
2022/03/31 04:33:28;;;;;;;;;;;;;;;2.30;100.00;100394.25;5117009;28;19922;-68
2022/03/31 04:35:54;;;;;;;;;;;;;;;2.27;100.00;100391.69;5113911;28;19965;-68
2022/03/31 04:38:19;;;;;;;;;;;;;;;2.28;100.00;100395.19;5119154;27;19973;-67
2022/03/31 04:40:44;;;;;;;;;;;;;;;2.17;100.00;100390.13;5119219;27;19916;-70
2022/03/31 04:43:10;;;;;;;;;;;;;;;2.12;100.00;100388.47;5137984;27;19916;-68
2022/03/31 04:45:35;;;;;;;;;;;;;;;2.22;100.00;100400.53;5137797;27;19920;-70
2022/03/31 04:48:00;;;;;;;;;;;;;;;2.22;100.00;100401.38;5137670;27;19916;-69
2022/03/31 04:50:25;;;;;;;;;;;;;;;2.29;100.00;100397.78;5137687;27;19916;-70
2022/03/31 04:52:50;;;;;;;;;;;;;;;2.27;100.00;100399.53;5119862;27;19915;-69
2022/03/31 04:55:16;;;;;;;;;;;;;;;2.16;100.00;100398.84;5119469;27;19919;-69
2022/03/31 04:57:42;;;;;;;;;;;;;;;2.17;100.00;100397.97;5118915;27;20285;-70
2022/03/31 05:00:07;;;;;;;;;;;;;;;2.18;100.00;100389.22;5116136;27;19942;-68
2022/03/31 05:02:32;;;;;;;;;;;;;;;2.12;100.00;100398.94;5116166;27;20281;-69
2022/03/31 05:04:58;;;;;;;;;;;;;;;2.07;100.00;100392.91;5121216;27;20429;-67
2022/03/31 05:07:23;;;;;;;;;;;;;;;2.18;100.00;100378.75;5117544;27;19915;-68
2022/03/31 05:09:48;;;;;;;;;;;;;;;2.11;100.00;100382.34;5123876;27;19915;-68
2022/03/31 05:12:14;;;;;;;;;;;;;;;2.13;100.00;100383.19;5114801;27;19928;-69
2022/03/31 05:14:39;;;;;;;;;;;;;;;2.17;100.00;100387.50;5116478;27;19920;-68
2022/03/31 05:17:05;;;;;;;;;;;;;;;2.13;100.00;100379.72;5098009;28;19916;-68
2022/03/31 05:19:30;;;;;;;;;;;;;;;2.13;100.00;100391.03;5097660;28;19920;-68
2022/03/31 05:21:56;;;;;;;;;;;;;;;2.20;100.00;100383.97;5116028;28;20014;-68
2022/03/31 05:24:21;;;;;;;;;;;;;;;2.13;100.00;100379.72;5098151;28;19947;-68
2022/03/31 05:26:46;;;;;;;;;;;;;;;2.25;100.00;100375.16;5101984;27;19969;-66
2022/03/31 05:29:13;;;;;;;;;;;;;;;2.12;100.00;100378.84;5115857;27;20011;-67
2022/03/31 05:31:39;;;;;;;;;;;;;;;2.19;100.00;100384.88;5130724;27;19919;-67
2022/03/31 05:34:04;;;;;;;;;;;;;;;2.20;100.00;100386.59;5132753;27;19961;-69
2022/03/31 05:36:29;;;;;;;;;;;;;;;2.31;100.00;100390.75;5117343;27;20282;-68
2022/03/31 05:38:56;;;;;;;;;;;;;;;2.22;100.00;100393.50;5131715;27;19923;-71
2022/03/31 05:41:22;;;;;;;;;;;;;;;2.32;100.00;100392.47;5114947;27;19922;-69
2022/03/31 05:43:47;;;;;;;;;;;;;;;2.36;100.00;100383.69;5117465;27;20049;-68
2022/03/31 05:46:13;;;;;;;;;;;;;;;2.29;100.00;100397.78;5136850;27;19996;-70
2022/03/31 05:48:38;;;;;;;;;;;;;;;2.38;100.00;100394.16;5118028;27;19940;-70
2022/03/31 05:51:03;;;;;;;;;;;;;;;2.44;100.00;100396.66;5117913;27;19964;-70
2022/03/31 05:53:28;;;;;;;;;;;;;;;2.47;100.00;100391.38;5117958;27;19930;-70
2022/03/31 05:55:54;;;;;;;;;;;;;;;2.44;100.00;100387.03;5117654;27;19958;-69
2022/03/31 05:58:19;;;;;;;;;;;;;;;2.47;100.00;100388.75;5117904;27;20006;-69
2022/03/31 06:00:44;;;;;;;;;;;;;;;2.60;100.00;100385.88;5136008;27;20015;-69
2022/03/31 06:03:09;;;;;;;;;;;;;;;2.60;100.00;100388.50;5135962;27;19937;-70
2022/03/31 06:05:34;;;;;;;;;;;;;;;2.60;100.00;100385.88;5118900;27;19924;-70
2022/03/31 06:08:00;;;;;;;;;;;;;;;2.65;100.00;100376.19;5137647;27;20343;-71
2022/03/31 06:10:25;;;;;;;;;;;;;;;2.70;100.00;100378.72;5138453;27;20287;-71
2022/03/31 06:12:50;;;;;;;;;;;;;;;2.77;100.00;100377.72;5118629;27;19915;-70
2022/03/31 06:15:18;;;;;;;;;;;;;;;2.77;100.00;100380.34;5117888;27;20358;-69
2022/03/31 06:17:45;;;;;;;;;;;;;;;2.91;100.00;100379.19;5136052;27;19919;-70
2022/03/31 06:20:11;;;;;;;;;;;;;;;2.95;100.00;100388.72;5113701;28;20370;-69
2022/03/31 06:22:37;;;;;;;;;;;;;;;2.80;100.00;100380.28;5107975;28;19916;-71
2022/03/31 06:25:02;;;;;;;;;;;;;;;2.81;100.00;100382.88;5099181;28;19915;-69
2022/03/31 06:27:30;;;;;;;;;;;;;;;2.80;100.00;100381.16;5099843;28;20397;-70
2022/03/31 06:29:56;;;;;;;;;;;;;;;2.90;100.00;100380.06;5113252;28;19969;-72
2022/03/31 06:32:22;;;;;;;;;;;;;;;2.94;100.00;100379.13;5099506;28;20438;-71
2022/03/31 06:34:47;;;;;;;;;;;;;;;2.91;100.00;100375.69;5095983;28;19955;-69
2022/03/31 06:37:37;;;;;;;;;;;;;;;2.92;100.00;100380.03;5113811;28;19915;-68
2022/03/31 06:40:02;;;;;;;;;;;;;;;3.17;100.00;100375.19;5113550;28;19916;-69
2022/03/31 06:42:27;;;;;;;;;;;;;;;3.07;100.00;100369.25;5110634;28;19920;-68
2022/03/31 06:44:53;;;;;;;;;;;;;;;3.06;100.00;100357.91;5103244;28;19916;-68
2022/03/31 06:47:18;;;;;;;;;;;;;;;3.12;100.00;100365.63;5115066;28;19923;-70
2022/03/31 06:49:43;;;;;;;;;;;;;;;3.10;100.00;100348.22;5115032;28;19922;-69
2022/03/31 06:52:08;;;;;;;;;;;;;;;3.01;100.00;100338.75;5113485;28;20378;-69
2022/03/31 06:54:33;;;;;;;;;;;;;;;3.08;100.00;100339.50;5114708;28;20405;-69
2022/03/31 06:56:59;;;;;;;;;;;;;;;3.17;100.00;100333.22;5107593;28;19962;-69
2022/03/31 06:59:24;;;;;;;;;;;;;;;3.28;100.00;100332.06;5095277;28;19920;-69
2022/03/31 07:01:49;;;;;;;;;;;;;;;3.30;100.00;100321.53;5106376;28;19916;-71
2022/03/31 07:04:15;;;;;;;;;;;;;;;3.24;100.00;100324.28;5100347;28;19920;-70
2022/03/31 07:06:40;;;;;;;;;;;;;;;3.30;100.00;100318.91;5101743;28;19920;-70
2022/03/31 07:09:19;;;;;;;;;;;;;;;3.38;100.00;100317.88;5108194;28;19919;-70
2022/03/31 07:11:44;;;;;;;;;;;;;;;3.37;100.00;100313.53;5099780;28;19923;-70
2022/03/31 07:14:09;;;;;;;;;;;;;;;3.49;100.00;100309.75;5105547;28;19920;-71
2022/03/31 07:16:34;;;;;;;;;;;;;;;3.52;100.00;100301.78;5093469;28;20371;-69
2022/03/31 07:19:01;;;;;;;;;;;;;;;3.54;100.00;100313.13;5100428;28;19987;-69
2022/03/31 07:21:26;;;;;;;;;;;;;;;3.51;100.00;100313.19;5114493;28;19924;-69
2022/03/31 07:23:52;;;;;;;;;;;;;;;3.82;100.00;100317.72;5101370;28;19934;-70
2022/03/31 07:26:18;;;;;;;;;;;;;;;3.88;100.00;100314.06;5109394;28;19919;-69
2022/03/31 07:28:43;;;;;;;;;;;;;;;4.03;100.00;100304.06;5116125;28;20404;-69
2022/03/31 07:31:08;;;;;;;;;;;;;;;4.27;100.00;100303.44;5115235;28;19923;-69
2022/03/31 07:33:34;;;;;;;;;;;;;;;4.30;100.00;100298.09;5133003;28;19966;-71
2022/03/31 07:35:59;;;;;;;;;;;;;;;4.19;100.00;100294.03;5106696;28;19916;-69
2022/03/31 07:38:24;;;;;;;;;;;;;;;4.11;100.00;100290.72;5109710;28;19916;-69
2022/03/31 07:40:50;;;;;;;;;;;;;;;4.18;100.00;100287.91;5096200;28;19923;-69
2022/03/31 07:43:15;;;;;;;;;;;;;;;4.07;100.00;100283.81;5121129;28;19916;-69
2022/03/31 07:45:41;;;;;;;;;;;;;;;4.15;100.00;100277.47;5131005;28;19923;-69
2022/03/31 07:48:08;;;;;;;;;;;;;;;3.81;100.00;100276.59;5121909;28;19915;-70
2022/03/31 07:50:34;;;;;;;;;;;;;;;3.96;100.00;100283.22;5098815;28;19954;-69
2022/03/31 07:52:59;;;;;;;;;;;;;;;3.76;100.00;100267.09;5103416;28;20383;-69
2022/03/31 07:55:24;;;;;;;;;;;;;;;3.90;100.00;100259.72;5116451;28;19966;-69
2022/03/31 07:57:50;;;;;;;;;;;;;;;4.27;100.00;100268.41;5108851;28;19915;-70
2022/03/31 08:00:16;;;;;;;;;;;;;;;4.13;100.00;100266.13;5116901;27;19962;-72
2022/03/31 08:02:42;;;;;;;;;;;;;;;4.24;100.00;100261.44;5109959;27;19942;-70
2022/03/31 08:05:11;;;;;;;;;;;;;;;4.42;100.00;100263.59;5120119;27;20010;-70
2022/03/31 08:07:37;;;;;;;;;;;;;;;4.46;100.00;100259.09;5102245;27;19923;-70
2022/03/31 08:10:06;;;;;;;;;;;;;;;4.68;100.00;100265.50;5103018;28;19961;-70
2022/03/31 08:12:31;;;;;;;;;;;;;;;4.63;100.00;100259.53;5111737;27;19923;-70
2022/03/31 08:14:57;;;;;;;;;;;;;;;4.91;100.00;100265.72;5143806;27;19924;-69
2022/03/31 08:17:23;;;;;;;;;;;;;;;5.23;100.00;100247.19;5120147;27;19916;-69
2022/03/31 08:19:48;;;;;;;;;;;;;;;5.18;100.00;100249.13;5124729;27;19926;-70
2022/03/31 08:22:13;;;;;;;;;;;;;;;4.95;100.00;100256.81;5114856;28;19958;-68
2022/03/31 08:24:38;;;;;;;;;;;;;;;5.13;100.00;100251.03;5127195;27;19919;-69
2022/03/31 08:27:05;;;;;;;;;;;;;;;5.00;100.00;100248.78;5126666;27;19971;-68
2022/03/31 08:29:31;;;;;;;;;;;;;;;5.29;100.00;100252.31;5142515;27;20382;-69
2022/03/31 08:31:57;;;;;;;;;;;;;;;5.07;100.00;100251.22;5121185;27;20422;-69
2022/03/31 08:34:23;;;;;;;;;;;;;;;5.40;100.00;100249.31;5127861;27;19915;-69
2022/03/31 08:36:48;;;;;;;;;;;;;;;5.41;100.00;100243.13;5122787;27;20380;-70
2022/03/31 08:39:13;;;;;;;;;;;;;;;5.88;100.00;100248.66;5117623;28;19916;-71
2022/03/31 08:41:38;;;;;;;;;;;;;;;5.86;100.00;100239.09;5111561;28;19920;-69
2022/03/31 08:44:05;;;;;;;;;;;;;;;5.92;100.00;100245.00;5106857;28;20279;-71
2022/03/31 08:46:31;;;;;;;;;;;;;;;6.06;100.00;100242.78;5099068;28;19920;-69
2022/03/31 08:48:57;;;;;;;;;;;;;;;6.42;100.00;100237.13;5104020;28;19916;-68
2022/03/31 08:51:22;;;;;;;;;;;;;;;6.84;100.00;100240.88;5098404;28;20015;-68
2022/03/31 08:53:47;;;;;;;;;;;;;;;7.04;100.00;100230.41;5127233;27;19973;-68
2022/03/31 08:56:13;;;;;;;;;;;;;;;6.82;100.00;100235.66;5118660;27;19915;-68
2022/03/31 08:58:38;;;;;;;;;;;;;;;6.79;100.00;100229.63;5133995;27;19923;-68
2022/03/31 09:01:03;;;;;;;;;;;;;;;6.39;100.00;100224.91;5136918;27;20297;-70
2022/03/31 09:03:35;;;;;;;;;;;;;;;6.59;100.00;100232.97;5101947;28;19922;-70
2022/03/31 09:06:01;;;;;;;;;;;;;;;6.57;100.00;100226.88;5131755;27;19916;-69
2022/03/31 09:08:26;;;;;;;;;;;;;;;6.24;100.00;100225.44;5114022;28;19939;-70
2022/03/31 09:10:55;;;;;;;;;;;;;;;6.40;100.00;100224.00;5131085;27;19938;-70
2022/03/31 09:13:21;;;;;;;;;;;;;;;6.64;100.00;100230.16;5118190;27;20370;-69
2022/03/31 09:16:01;;;;;;;;;;;;;;;6.46;100.00;100226.41;5118239;27;20393;-69
2022/03/31 09:18:27;;;;;;;;;;;;;;;6.60;100.00;100215.38;5118137;27;19915;-69
2022/03/31 09:20:54;;;;;;;;;;;;;;;6.07;100.00;100226.03;5134660;27;19943;-70
2022/03/31 09:23:21;;;;;;;;;;;;;;;6.17;100.00;100223.94;5114921;27;20275;-72
2022/03/31 09:25:47;;;;;;;;;;;;;;;6.14;100.00;100222.28;5118910;27;19916;-71
2022/03/31 09:28:20;;;;;;;;;;;;;;;5.99;100.00;100230.69;5111575;27;20006;-71
2022/03/31 09:30:49;;;;;;;;;;;;;;;6.25;100.00;100232.44;5103527;28;19916;-70
2022/03/31 09:33:34;;;;;;;;;;;;;;;5.83;100.00;100228.66;5115944;28;19970;-69
2022/03/31 09:36:01;;;;;;;;;;;;;;;5.81;100.00;100226.03;5106456;27;19960;-70
2022/03/31 09:38:27;;;;;;;;;;;;;;;6.08;100.00;100224.28;5117851;27;19915;-70
2022/03/31 09:40:52;;;;;;;;;;;;;;;5.62;100.00;100231.94;5118374;27;19999;-70
2022/03/31 09:43:18;;;;;;;;;;;;;;;5.88;100.00;100238.09;5132082;27;19915;-69
2022/03/31 09:45:43;;;;;;;;;;;;;;;5.99;100.00;100235.09;5118157;27;19916;-69
2022/03/31 09:48:29;;;;;;;;;;;;;;;6.02;100.00;100229.72;5115604;28;19951;-69
2022/03/31 09:50:54;;;;;;;;;;;;;;;5.71;100.00;100221.97;5133373;27;19915;-70
2022/03/31 09:53:19;;;;;;;;;;;;;;;5.86;100.00;100229.38;5135734;27;20381;-69
2022/03/31 09:55:46;;;;;;;;;;;;;;;5.93;100.00;100225.63;5114757;27;19960;-69
2022/03/31 09:58:14;;;;;;;;;;;;;;;6.00;100.00;100227.13;5109375;27;20293;-69
2022/03/31 10:00:40;;;;;;;;;;;;;;;5.90;100.00;100219.59;5132715;27;20010;-69
2022/03/31 10:03:06;;;;;;;;;;;;;;;6.05;100.00;100214.66;5135777;27;20454;-69
2022/03/31 10:05:32;;;;;;;;;;;;;;;6.05;100.00;100212.03;5117569;27;19915;-69
2022/03/31 10:07:58;;;;;;;;;;;;;;;6.08;100.00;100216.34;5100132;27;19970;-69
2022/03/31 10:10:24;;;;;;;;;;;;;;;6.39;100.00;100216.13;5118046;27;19972;-70
2022/03/31 10:12:55;;;;;;;;;;;;;;;6.23;100.00;100214.06;5117184;27;19919;-70
2022/03/31 10:15:29;;;;;;;;;;;;;;;5.93;100.00;100208.97;5135940;27;19915;-69
2022/03/31 10:17:55;;;;;;;;;;;;;;;5.62;100.00;100214.38;5117330;27;19922;-69
2022/03/31 10:20:21;;;;;;;;;;;;;;;5.56;100.00;100214.53;5117254;27;19927;-70
2022/03/31 10:25:39;;;;;;;;;;;;;;;5.40;100.00;100215.09;5115408;28;20427;-70
2022/03/31 10:28:12;;;;;;;;;;;;;;;5.34;100.00;100217.94;5096565;28;19969;-69
2022/03/31 10:30:37;;;;;;;;;;;;;;;5.54;100.00;100223.41;5100495;27;19976;-69
2022/03/31 10:33:04;;;;;;;;;;;;;;;5.43;100.00;100217.63;5115975;27;19919;-69
2022/03/31 10:35:34;;;;;;;;;;;;;;;5.31;100.00;100223.28;5116722;27;19915;-70
2022/03/31 10:38:10;;;;;;;;;;;;;;;5.29;100.00;100215.44;5111748;27;19965;-70
2022/03/31 10:40:43;;;;;;;;;;;;;;;5.27;100.00;100216.38;5116862;27;19955;-69
2022/03/31 10:43:27;;;;;;;;;;;;;;;5.48;100.00;100213.09;5116386;27;20010;-69
2022/03/31 10:45:57;;;;;;;;;;;;;;;5.74;100.00;100208.69;5135060;27;19968;-70
2022/03/31 10:48:22;;;;;;;;;;;;;;;5.93;100.00;100208.97;5135106;27;19916;-69
2022/03/31 10:50:59;;;;;;;;;;;;;;;6.14;100.00;100201.19;5116846;27;19965;-69
2022/03/31 10:53:28;;;;;;;;;;;;;;;6.36;100.00;100203.06;5135127;27;19915;-70
2022/03/31 10:55:55;;;;;;;;;;;;;;;6.30;100.00;100195.38;5116590;27;20002;-69
2022/03/31 10:58:30;;;;;;;;;;;;;;;6.45;100.00;100197.44;5135275;27;20386;-70
2022/03/31 11:00:56;;;;;;;;;;;;;;;6.28;100.00;100192.78;5116781;27;19922;-70
2022/03/31 11:03:22;;;;;;;;;;;;;;;6.21;100.00;100194.78;5134619;27;19919;-69
2022/03/31 11:05:48;;;;;;;;;;;;;;;6.12;100.00;100184.56;5116758;28;19967;-70
2022/03/31 11:08:17;;;;;;;;;;;;;;;6.12;100.00;100181.94;5116852;27;19915;-69
2022/03/31 11:10:43;;;;;;;;;;;;;;;6.48;100.00;100192.94;5116703;27;19923;-70
2022/03/31 11:13:09;;;;;;;;;;;;;;;6.27;100.00;100184.94;5116404;28;20355;-70
2022/03/31 11:15:34;;;;;;;;;;;;;;;6.23;100.00;100178.91;5135395;28;19950;-70
2022/03/31 11:18:00;;;;;;;;;;;;;;;6.26;100.00;100188.50;5116263;28;19923;-69
2022/03/31 11:20:26;;;;;;;;;;;;;;;6.48;100.00;100185.00;5116281;28;20339;-70
2022/03/31 11:22:53;;;;;;;;;;;;;;;6.38;100.00;100188.03;5134627;28;19915;-70
2022/03/31 11:25:19;;;;;;;;;;;;;;;6.13;100.00;100175.72;5116452;28;19996;-69
2022/03/31 11:27:46;;;;;;;;;;;;;;;6.35;100.00;100180.25;5116246;28;20262;-70
2022/03/31 11:30:23;;;;;;;;;;;;;;;6.26;100.00;100175.31;5114824;28;20401;-70
2022/03/31 11:32:51;;;;;;;;;;;;;;;6.43;100.00;100170.28;5114988;28;19921;-70
2022/03/31 11:35:17;;;;;;;;;;;;;;;6.24;100.00;100163.03;5137461;27;19916;-69
2022/03/31 11:37:43;;;;;;;;;;;;;;;5.89;100.00;100166.03;5138567;27;20370;-70
2022/03/31 11:40:11;;;;;;;;;;;;;;;5.99;100.00;100164.81;5138636;27;19916;-69
2022/03/31 11:42:42;;;;;;;;;;;;;;;6.00;100.00;100171.78;5120416;27;19935;-68
2022/03/31 11:45:08;;;;;;;;;;;;;;;5.99;100.00;100164.81;5138494;27;20406;-69
2022/03/31 11:47:33;;;;;;;;;;;;;;;5.82;100.00;100172.44;5119681;27;19955;-70
2022/03/31 11:50:00;;;;;;;;;;;;;;;5.82;100.00;100167.16;5119680;27;19927;-69
2022/03/31 11:52:29;;;;;;;;;;;;;;;5.76;100.00;100159.44;5114148;27;19915;-69
2022/03/31 11:54:58;;;;;;;;;;;;;;;6.12;100.00;100160.84;5119893;27;19915;-68
2022/03/31 11:57:23;;;;;;;;;;;;;;;6.07;100.00;100172.44;5116593;28;19916;-70
2022/03/31 11:59:49;;;;;;;;;;;;;;;6.26;100.00;100165.59;5099484;28;19940;-71
2022/03/31 12:02:15;;;;;;;;;;;;;;;6.40;100.00;100162.50;5104355;27;20010;-69
2022/03/31 12:04:42;;;;;;;;;;;;;;;6.59;100.00;100168.78;5120192;27;19915;-70
2022/03/31 12:07:09;;;;;;;;;;;;;;;6.79;100.00;100163.63;5120486;27;20390;-70
2022/03/31 12:09:37;;;;;;;;;;;;;;;6.62;100.00;100161.63;5117576;28;19916;-70
2022/03/31 12:12:02;;;;;;;;;;;;;;;6.72;100.00;100159.50;5099449;28;19942;-70
2022/03/31 12:14:30;;;;;;;;;;;;;;;6.59;100.00;100163.50;5117802;28;20425;-70
2022/03/31 12:16:56;;;;;;;;;;;;;;;6.55;100.00;100167.19;5117777;28;19922;-69
2022/03/31 12:19:22;;;;;;;;;;;;;;;6.35;100.00;100167.91;5119653;27;19965;-70
2022/03/31 12:21:50;;;;;;;;;;;;;;;6.25;100.00;100166.53;5099176;28;19920;-69
2022/03/31 12:24:16;;;;;;;;;;;;;;;5.97;100.00;100169.25;5099164;28;19911;-69
2022/03/31 12:26:58;;;;;;;;;;;;;;;5.79;100.00;100163.75;5098869;28;19966;-70
2022/03/31 12:29:31;;;;;;;;;;;;;;;6.00;100.00;100169.16;5099234;28;20367;-68
2022/03/31 12:31:59;;;;;;;;;;;;;;;6.18;100.00;100178.19;5098917;28;19924;-68
2022/03/31 12:34:25;;;;;;;;;;;;;;;6.25;100.00;100174.44;5115906;28;19915;-68
2022/03/31 12:36:50;;;;;;;;;;;;;;;6.25;100.00;100169.16;5099130;28;19968;-74
2022/03/31 12:39:15;;;;;;;;;;;;;;;5.96;100.00;100167.56;5082316;28;20106;-70
2022/03/31 12:41:41;;;;;;;;;;;;;;;5.92;100.00;100168.59;5117335;28;19969;-69
2022/03/31 12:44:07;;;;;;;;;;;;;;;5.98;100.00;100171.00;5118725;27;19923;-69
2022/03/31 12:46:34;;;;;;;;;;;;;;;5.97;100.00;100164.00;5138500;27;19923;-69